This is the latest recevied weather packets stored in our database for station/object N7AWM. If no packets are shown the sender has not sent any weather packets the latest 1 day(s).
| Time | Temp. | Humidity | Pressure | Rain* | Wind** | Luminosity | Snow |
|---|---|---|---|---|---|---|---|
| 1778037595 | 21.11° C | 40% | 1005.8 hPa | 0 mm | 2.24 m/s, 348° | - | - |
| 1778036755 | 22.22° C | 39% | 1005.7 hPa | 0 mm | 1.34 m/s, 349° | - | - |
| 1778035915 | 24.44° C | 34% | 1005.6 hPa | 0 mm | 1.34 m/s, 341° | - | - |
| 1778035075 | 25° C | 39% | 1005.5 hPa | 0 mm | 0 m/s | - | - |
| 1778034235 | 25.56° C | 42% | 1005.3 hPa | 0 mm | 0 m/s | - | - |
| 1778033395 | 25.56° C | 42% | 1005.2 hPa | 0 mm | 0.45 m/s, 278° | - | - |
| 1778032555 | 27.22° C | 36% | 1005.1 hPa | 0 mm | 0 m/s | - | - |
| 1778031715 | 26.67° C | 35% | 1005 hPa | 0 mm | 0.89 m/s, 125° | - | - |
| 1778030876 | 26.67° C | 34% | 1005 hPa | 0 mm | 1.79 m/s, 136° | - | - |
| 1778030036 | 26.67° C | 34% | 1005 hPa | 0 mm | 1.79 m/s, 134° | - | - |
| 1778029196 | 26.11° C | 35% | 1005.1 hPa | 0 mm | 0.89 m/s, 100° | - | - |
| 1778028356 | 26.67° C | 35% | 1005 hPa | 0 mm | 1.79 m/s, 162° | - | - |
| 1778027516 | 27.22° C | 33% | 1005.1 hPa | 0 mm | 1.34 m/s, 172° | - | - |
| 1778026676 | 26.67° C | 35% | 1005.1 hPa | 0 mm | 1.79 m/s, 134° | - | - |
| 1778025836 | 26.67° C | 34% | 1005.3 hPa | 0 mm | 1.79 m/s, 98° | - | - |
| 1778024996 | 26.67° C | 34% | 1005.4 hPa | 0 mm | 1.79 m/s, 229° | - | - |
| 1778024156 | 27.22° C | 32% | 1005.5 hPa | 0 mm | 1.34 m/s, 169° | - | - |
| 1778023316 | 26.67° C | 31% | 1005.5 hPa | 0 mm | 1.34 m/s, 108° | - | - |
| 1778022476 | 27.22° C | 31% | 1005.7 hPa | 0 mm | 1.34 m/s, 160° | - | - |
| 1778021636 | 27.78° C | 33% | 1005.7 hPa | 0 mm | 0.89 m/s, 250° | - | - |
| 1778020796 | 27.78° C | 29% | 1005.9 hPa | 0 mm | 1.79 m/s, 176° | - | - |
| 1778019956 | 27.22° C | 33% | 1006 hPa | 0 mm | 0.89 m/s, 130° | - | - |
| 1778019116 | 27.22° C | 30% | 1006.2 hPa | 0 mm | 1.34 m/s, 149° | - | - |
| 1778018277 | 27.22° C | 30% | 1006.2 hPa | 0 mm | 1.34 m/s, 240° | - | - |
| 1778017437 | 26.67° C | 31% | 1006.3 hPa | 0 mm | 1.34 m/s, 156° | - | - |
* Rain latest hour (hover to see other rain measurements)
** Current wind speed in m/s (hover to see current wind gust speed)